createdAt,value
2023-05-03T00:01:52.762Z,9.58
2023-05-03T00:04:45.772Z,9.59
2023-05-03T00:07:35.194Z,9.60
2023-05-03T00:10:24.865Z,9.60
2023-05-03T00:13:14.083Z,9.62
2023-05-03T00:16:03.715Z,9.61
2023-05-03T00:18:56.938Z,9.59
2023-05-03T00:21:46.664Z,9.56
2023-05-03T00:24:36.210Z,9.54
2023-05-03T00:27:25.428Z,9.52
2023-05-03T00:30:16.816Z,9.51
2023-05-03T00:33:05.888Z,9.49
2023-05-03T00:35:56.195Z,9.48
2023-05-03T00:38:45.375Z,9.48
2023-05-03T00:41:34.375Z,9.49
2023-05-03T00:44:23.741Z,9.52
2023-05-03T00:47:13.746Z,9.53
2023-05-03T00:50:04.664Z,9.53
2023-05-03T00:52:54.661Z,9.51
2023-05-03T00:55:46.420Z,9.50
2023-05-03T00:58:39.457Z,9.50
2023-05-03T01:01:29.978Z,9.43
2023-05-03T01:04:21.396Z,9.34
2023-05-03T01:07:18.513Z,9.24
2023-05-03T01:10:21.600Z,9.09
2023-05-03T01:13:21.828Z,8.99
2023-05-03T01:16:16.519Z,8.89
2023-05-03T01:19:19.982Z,8.79
2023-05-03T01:22:24.449Z,8.71
2023-05-03T01:25:15.765Z,8.63
2023-05-03T01:28:04.892Z,8.59
2023-05-03T01:30:56.859Z,8.54
2023-05-03T01:33:54.113Z,8.47
2023-05-03T01:36:45.581Z,8.42
2023-05-03T01:39:38.359Z,8.42
2023-05-03T01:42:29.761Z,8.40
2023-05-03T01:45:19.555Z,8.35
2023-05-03T01:48:14.473Z,8.27
2023-05-03T01:51:03.586Z,8.20
2023-05-03T01:53:52.998Z,8.16
2023-05-03T01:56:42.018Z,8.12
2023-05-03T01:59:31.293Z,8.11
2023-05-03T02:02:20.238Z,8.09
2023-05-03T02:05:11.109Z,8.08
2023-05-03T02:08:00.127Z,8.06
2023-05-03T02:10:49.686Z,8.07
2023-05-03T02:13:39.511Z,8.09
2023-05-03T02:16:29.730Z,8.08
2023-05-03T02:19:19.028Z,8.07
2023-05-03T02:22:08.291Z,8.07
2023-05-03T02:24:58.219Z,8.06
2023-05-03T02:27:47.421Z,8.05
2023-05-03T02:30:36.583Z,8.02
2023-05-03T02:33:26.802Z,8.00
2023-05-03T02:36:16.635Z,7.99
2023-05-03T02:39:06.051Z,7.99
2023-05-03T02:41:55.021Z,8.00
2023-05-03T02:44:46.046Z,7.99
2023-05-03T02:47:41.288Z,7.98
2023-05-03T02:50:30.959Z,7.97
2023-05-03T02:53:20.364Z,7.96
2023-05-03T02:56:09.704Z,7.94
2023-05-03T02:58:59.285Z,7.94
2023-05-03T03:01:49.363Z,7.92
2023-05-03T03:04:38.615Z,7.88
2023-05-03T03:07:30.407Z,7.84
2023-05-03T03:10:19.994Z,7.81
2023-05-03T03:13:11.130Z,7.79
2023-05-03T03:16:00.609Z,7.78
2023-05-03T03:18:54.310Z,7.74
2023-05-03T03:21:43.850Z,7.74
2023-05-03T03:24:33.249Z,7.75
2023-05-03T03:27:23.559Z,7.75
2023-05-03T03:30:13.810Z,7.74
2023-05-03T03:33:03.044Z,7.75
2023-05-03T03:35:52.544Z,7.75
2023-05-03T03:38:41.584Z,7.73
2023-05-03T03:41:31.782Z,7.72
2023-05-03T03:44:21.311Z,7.71
2023-05-03T03:47:11.008Z,7.70
2023-05-03T03:50:02.483Z,7.70
2023-05-03T03:52:52.232Z,7.72
2023-05-03T03:55:41.558Z,7.75
2023-05-03T03:58:30.681Z,7.79
2023-05-03T04:01:19.705Z,7.83
2023-05-03T04:04:09.363Z,7.85
2023-05-03T04:06:58.945Z,7.85
2023-05-03T04:09:48.757Z,7.87
2023-05-03T04:12:38.055Z,7.87
2023-05-03T04:15:27.277Z,7.89
2023-05-03T04:18:18.325Z,7.92
2023-05-03T04:21:07.530Z,7.93
2023-05-03T04:23:56.774Z,7.96
2023-05-03T04:26:46.060Z,7.99
2023-05-03T04:29:35.239Z,8.03
2023-05-03T04:32:24.426Z,8.06
2023-05-03T04:35:13.986Z,8.10
2023-05-03T04:38:03.812Z,8.19
2023-05-03T04:40:57.818Z,8.48
2023-05-03T04:43:46.950Z,8.97
2023-05-03T04:46:44.145Z,10.01
2023-05-03T04:49:34.780Z,11.19
2023-05-03T04:52:25.015Z,12.14
2023-05-03T04:55:15.054Z,12.42
2023-05-03T04:58:04.748Z,12.18
2023-05-03T05:00:55.126Z,11.97
2023-05-03T05:03:45.047Z,11.79
2023-05-03T05:06:20.771Z,11.68
2023-05-03T05:09:22.652Z,11.83
2023-05-03T05:12:12.883Z,11.93
2023-05-03T05:15:02.586Z,11.79
2023-05-03T05:17:52.843Z,11.64
2023-05-03T05:20:42.781Z,11.64
2023-05-03T05:23:32.257Z,11.69
2023-05-03T05:26:22.335Z,11.79
2023-05-03T05:29:12.131Z,11.80
2023-05-03T05:32:03.695Z,11.68
2023-05-03T05:34:55.507Z,11.79
2023-05-03T05:37:45.615Z,12.22
2023-05-03T05:40:36.367Z,12.60
2023-05-03T05:43:25.659Z,12.74
2023-05-03T05:46:16.334Z,12.94
2023-05-03T05:49:09.364Z,13.51
2023-05-03T05:51:58.969Z,13.65
2023-05-03T05:54:48.714Z,13.56
2023-05-03T05:57:45.833Z,13.36
2023-05-03T06:00:35.189Z,13.21
2023-05-03T06:03:25.603Z,12.97
2023-05-03T06:06:15.850Z,12.63
2023-05-03T06:09:16.741Z,12.35
2023-05-03T06:12:14.957Z,12.20
2023-05-03T06:15:06.746Z,12.14
2023-05-03T06:17:49.545Z,12.08
2023-05-03T06:20:38.916Z,12.04
2023-05-03T06:23:33.047Z,12.01
2023-05-03T06:26:24.979Z,11.93
2023-05-03T06:29:16.444Z,11.91
2023-05-03T06:32:08.175Z,11.86
2023-05-03T06:34:59.554Z,11.73
2023-05-03T06:37:50.345Z,11.69
2023-05-03T06:40:40.899Z,11.81
2023-05-03T06:43:30.874Z,12.23
2023-05-03T06:46:20.736Z,12.62
2023-05-03T06:49:12.909Z,12.92
2023-05-03T06:52:11.516Z,13.04
2023-05-03T06:55:01.023Z,13.09
2023-05-03T06:57:52.015Z,12.89
2023-05-03T07:00:41.319Z,12.87
2023-05-03T07:03:20.775Z,12.88
2023-05-03T07:06:10.339Z,12.83
2023-05-03T07:08:59.806Z,12.89
2023-05-03T07:11:51.391Z,13.06
2023-05-03T07:14:41.244Z,13.03
2023-05-03T07:17:31.895Z,13.02
2023-05-03T07:20:22.304Z,13.00
2023-05-03T07:23:12.409Z,13.03
2023-05-03T07:26:01.974Z,13.02
2023-05-03T07:28:50.635Z,12.94
2023-05-03T07:31:41.369Z,12.85
2023-05-03T07:34:32.235Z,12.87
2023-05-03T07:37:22.390Z,13.11
2023-05-03T07:40:13.757Z,13.35
2023-05-03T07:43:03.535Z,13.46
2023-05-03T07:45:54.520Z,13.42
2023-05-03T07:48:44.611Z,13.44
2023-05-03T07:51:37.797Z,13.59
2023-05-03T07:54:29.774Z,13.64
2023-05-03T07:57:23.350Z,13.39
2023-05-03T08:00:15.622Z,13.18
2023-05-03T08:03:06.104Z,13.21
2023-05-03T08:05:57.595Z,13.36
2023-05-03T08:08:46.933Z,13.48
2023-05-03T08:11:29.424Z,13.64
2023-05-03T08:14:18.745Z,13.72
2023-05-03T08:17:09.199Z,13.82
2023-05-03T08:19:58.445Z,13.82
2023-05-03T08:22:47.933Z,13.73
2023-05-03T08:25:32.110Z,13.56
2023-05-03T08:28:23.503Z,13.35
2023-05-03T08:31:13.116Z,13.29
2023-05-03T08:34:04.425Z,13.37
2023-05-03T08:36:53.401Z,13.62
2023-05-03T08:39:41.531Z,13.86
2023-05-03T08:42:33.200Z,13.93
2023-05-03T08:45:27.216Z,13.67
2023-05-03T08:48:17.261Z,13.44
2023-05-03T08:51:10.141Z,13.32
2023-05-03T08:54:00.272Z,13.53
2023-05-03T08:56:51.236Z,14.02
2023-05-03T08:59:58.047Z,14.63
2023-05-03T09:02:51.059Z,15.27
2023-05-03T09:05:43.633Z,15.73
2023-05-03T09:08:54.325Z,16.14
2023-05-03T09:11:44.612Z,16.52
2023-05-03T09:14:44.685Z,16.63
2023-05-03T09:17:34.149Z,16.45
2023-05-03T09:20:42.145Z,16.11
2023-05-03T09:23:32.253Z,15.85
2023-05-03T09:26:35.895Z,15.97
2023-05-03T09:29:33.632Z,16.23
2023-05-03T09:32:24.508Z,16.58
2023-05-03T09:35:15.070Z,16.50
2023-05-03T09:38:05.247Z,16.56
2023-05-03T09:40:57.725Z,16.93
2023-05-03T09:43:52.240Z,16.96
2023-05-03T09:47:01.099Z,16.72
2023-05-03T09:49:51.604Z,16.33
2023-05-03T09:52:40.701Z,16.17
2023-05-03T09:55:33.472Z,16.36
2023-05-03T09:58:25.241Z,16.27
2023-05-03T10:01:16.610Z,16.04
2023-05-03T10:04:08.575Z,15.87
2023-05-03T10:06:50.968Z,15.73
2023-05-03T10:09:44.875Z,15.88
2023-05-03T10:12:36.551Z,16.16
2023-05-03T10:15:28.690Z,16.50
2023-05-03T10:18:24.028Z,16.62
2023-05-03T10:21:21.861Z,16.42
2023-05-03T10:24:12.679Z,16.15
2023-05-03T10:27:02.606Z,16.23
2023-05-03T10:29:56.094Z,16.34
2023-05-03T10:32:46.397Z,16.51
2023-05-03T10:35:39.025Z,16.55
2023-05-03T10:38:31.413Z,16.81
2023-05-03T10:41:27.458Z,17.30
2023-05-03T10:44:39.236Z,17.71
2023-05-03T10:47:30.263Z,17.26
2023-05-03T10:50:28.640Z,16.72
2023-05-03T10:53:42.108Z,16.62
2023-05-03T10:56:31.396Z,16.87
2023-05-03T10:59:22.658Z,17.21
2023-05-03T11:02:16.891Z,17.22
2023-05-03T11:05:11.212Z,17.21
2023-05-03T11:08:13.565Z,17.19
2023-05-03T11:11:09.520Z,17.42
2023-05-03T11:14:20.675Z,17.34
2023-05-03T11:17:14.915Z,16.87
2023-05-03T11:20:08.157Z,16.51
2023-05-03T11:22:58.258Z,16.30
2023-05-03T11:25:47.721Z,16.28
2023-05-03T11:28:38.966Z,16.51
2023-05-03T11:31:29.562Z,16.81
2023-05-03T11:34:19.621Z,16.77
2023-05-03T11:37:12.993Z,16.70
2023-05-03T11:40:04.614Z,16.44
2023-05-03T11:42:55.766Z,16.49
2023-05-03T11:45:47.989Z,16.30
2023-05-03T11:48:38.370Z,15.82
2023-05-03T11:51:28.764Z,15.55
2023-05-03T11:54:25.377Z,15.42
2023-05-03T11:57:18.618Z,15.35
2023-05-03T12:00:16.507Z,15.27
2023-05-03T12:03:08.302Z,15.46
2023-05-03T12:05:58.748Z,15.95
2023-05-03T12:08:48.669Z,16.27
2023-05-03T12:11:44.117Z,16.10
2023-05-03T12:14:59.015Z,15.84
2023-05-03T12:18:00.159Z,15.90
2023-05-03T12:21:29.961Z,15.94
2023-05-03T12:24:10.645Z,15.81
2023-05-03T12:26:52.602Z,15.96
2023-05-03T12:29:35.399Z,15.88
2023-05-03T12:32:25.134Z,15.71
2023-05-03T12:35:14.796Z,15.56
2023-05-03T12:38:05.330Z,15.48
2023-05-03T12:40:57.756Z,15.42
2023-05-03T12:43:47.716Z,15.47
2023-05-03T12:46:44.019Z,15.42
2023-05-03T12:49:37.987Z,15.51
2023-05-03T12:55:25.258Z,15.57
2023-05-03T12:58:40.432Z,15.51
2023-05-03T13:04:44.517Z,15.16
2023-05-03T13:07:32.949Z,15.24
2023-05-03T13:10:29.073Z,15.49
2023-05-03T13:13:19.100Z,15.72
2023-05-03T13:16:10.139Z,15.85
2023-05-03T13:18:55.350Z,15.89
2023-05-03T13:21:43.169Z,15.85
2023-05-03T13:24:32.668Z,15.61
2023-05-03T13:27:26.010Z,15.44
2023-05-03T13:30:20.955Z,15.16
2023-05-03T13:33:10.144Z,14.92
2023-05-03T13:36:20.787Z,14.69
2023-05-03T13:39:10.754Z,14.53
2023-05-03T13:42:03.411Z,14.41
2023-05-03T13:44:53.121Z,14.32
2023-05-03T13:48:05.180Z,14.44
2023-05-03T13:50:52.074Z,14.46
2023-05-03T13:53:41.574Z,14.39
2023-05-03T13:56:37.232Z,14.28
2023-05-03T13:59:26.871Z,14.22
2023-05-03T14:02:18.214Z,14.16
2023-05-03T14:05:10.229Z,14.07
2023-05-03T14:08:01.252Z,13.95
2023-05-03T14:10:51.072Z,13.93
2023-05-03T14:13:55.595Z,13.97
2023-05-03T14:16:51.704Z,13.96
2023-05-03T14:19:41.178Z,13.83
2023-05-03T14:22:34.279Z,13.79
2023-05-03T14:25:23.960Z,13.91
2023-05-03T14:28:13.563Z,14.07
2023-05-03T14:31:04.293Z,14.18
2023-05-03T14:33:54.636Z,14.27
2023-05-03T14:36:44.283Z,14.39
2023-05-03T14:39:33.400Z,14.48
2023-05-03T14:42:23.980Z,14.61
2023-05-03T14:45:26.589Z,14.81
2023-05-03T14:48:16.284Z,15.04
2023-05-03T14:51:08.302Z,15.22
2023-05-03T14:53:57.860Z,15.27
2023-05-03T14:56:47.426Z,15.21
2023-05-03T14:59:36.607Z,15.30
2023-05-03T15:02:27.177Z,15.41
2023-05-03T15:05:17.338Z,15.44
2023-05-03T15:08:06.897Z,15.37
2023-05-03T15:10:59.631Z,15.23
2023-05-03T15:13:42.048Z,15.15
2023-05-03T15:16:31.563Z,15.04
2023-05-03T15:19:21.123Z,14.92
2023-05-03T15:22:10.692Z,14.83
2023-05-03T15:24:59.734Z,14.73
2023-05-03T15:27:48.918Z,14.64
2023-05-03T15:30:30.698Z,14.59
2023-05-03T15:33:20.018Z,14.58
2023-05-03T15:36:02.963Z,14.54
2023-05-03T15:38:52.966Z,14.52
2023-05-03T15:41:44.894Z,14.49
2023-05-03T15:44:34.669Z,14.41
2023-05-03T15:47:26.542Z,14.43
2023-05-03T15:50:16.486Z,14.40
2023-05-03T15:52:46.003Z,14.35
2023-05-03T15:55:26.651Z,14.34
2023-05-03T15:57:56.671Z,14.34
2023-05-03T16:00:47.080Z,14.33
2023-05-03T16:03:37.428Z,14.27
2023-05-03T16:06:17.237Z,14.24
2023-05-03T16:08:46.433Z,14.25
2023-05-03T16:11:22.988Z,14.22
2023-05-03T16:14:12.487Z,14.19
2023-05-03T16:17:03.954Z,14.20
2023-05-03T16:19:54.589Z,14.22
2023-05-03T16:22:37.128Z,14.26
2023-05-03T16:25:28.764Z,14.27
2023-05-03T16:28:18.109Z,14.26
2023-05-03T16:31:07.764Z,14.26
2023-05-03T16:33:57.404Z,14.26
2023-05-03T16:36:46.660Z,14.23
2023-05-03T16:39:39.302Z,14.14
2023-05-03T16:42:32.438Z,14.06
2023-05-03T16:45:21.284Z,13.99
2023-05-03T16:48:13.164Z,13.93
2023-05-03T16:51:02.798Z,13.87
2023-05-03T16:53:53.179Z,13.83
2023-05-03T16:56:43.972Z,13.81
2023-05-03T16:59:33.376Z,13.76
2023-05-03T17:02:23.062Z,13.73
2023-05-03T17:05:14.775Z,13.70
2023-05-03T17:08:07.727Z,13.64
2023-05-03T17:10:58.563Z,13.59
2023-05-03T17:13:48.217Z,13.55
2023-05-03T17:16:41.571Z,13.51
2023-05-03T17:19:33.700Z,13.46
2023-05-03T17:22:23.004Z,13.40
2023-05-03T17:25:12.856Z,13.34
2023-05-03T17:28:02.359Z,13.26
2023-05-03T17:30:56.904Z,13.19
2023-05-03T17:33:45.424Z,13.09
2023-05-03T17:36:34.863Z,13.00
2023-05-03T17:39:24.324Z,12.92
2023-05-03T17:42:13.547Z,12.85
2023-05-03T17:45:04.743Z,12.77
2023-05-03T17:47:55.960Z,12.68
2023-05-03T17:50:58.535Z,12.61
2023-05-03T17:53:48.133Z,12.53
2023-05-03T17:56:39.795Z,12.46
2023-05-03T17:59:31.851Z,12.39
2023-05-03T18:02:21.152Z,12.29
2023-05-03T18:05:12.617Z,12.18
2023-05-03T18:08:01.806Z,12.05
2023-05-03T18:10:51.677Z,11.95
2023-05-03T18:13:41.142Z,11.84
2023-05-03T18:16:39.165Z,11.74
2023-05-03T18:19:30.898Z,11.59
2023-05-03T18:22:21.520Z,11.47
2023-05-03T18:25:11.406Z,11.37
2023-05-03T18:28:01.936Z,11.23
2023-05-03T18:30:55.964Z,11.09
2023-05-03T18:33:50.537Z,10.94
2023-05-03T18:36:45.121Z,10.84
2023-05-03T18:39:35.093Z,10.72
2023-05-03T18:42:24.707Z,10.58
2023-05-03T18:45:17.344Z,10.40
2023-05-03T18:48:11.634Z,10.22
2023-05-03T18:51:02.139Z,10.08
2023-05-03T18:53:54.097Z,9.98
2023-05-03T18:56:44.018Z,9.83
2023-05-03T18:59:40.305Z,9.67
2023-05-03T19:02:36.495Z,9.51
2023-05-03T19:05:26.493Z,9.34
2023-05-03T19:08:16.365Z,9.17
2023-05-03T19:11:09.653Z,9.03
2023-05-03T19:13:58.827Z,8.88
2023-05-03T19:16:48.682Z,8.73
2023-05-03T19:19:37.007Z,8.60
2023-05-03T19:22:30.996Z,8.50
2023-05-03T19:25:20.503Z,8.39
2023-05-03T19:28:06.247Z,8.28
2023-05-03T19:31:01.230Z,8.18
2023-05-03T19:33:50.941Z,8.07
2023-05-03T19:36:41.998Z,7.96
2023-05-03T19:39:36.402Z,7.86
2023-05-03T19:42:50.155Z,7.76
2023-05-03T19:45:43.287Z,7.67
2023-05-03T19:48:27.084Z,7.61
2023-05-03T19:51:17.542Z,7.54
2023-05-03T19:54:07.286Z,7.47
2023-05-03T19:56:41.642Z,7.40
2023-05-03T19:59:21.850Z,7.29
2023-05-03T20:02:11.774Z,7.21
2023-05-03T20:04:54.607Z,7.14
2023-05-03T20:07:43.789Z,7.06
2023-05-03T20:10:35.805Z,6.98
2023-05-03T20:13:27.011Z,6.88
2023-05-03T20:16:18.336Z,6.80
2023-05-03T20:19:13.990Z,6.76
2023-05-03T20:22:03.488Z,6.70
2023-05-03T20:24:53.139Z,6.66
2023-05-03T20:27:42.573Z,6.63
2023-05-03T20:30:32.104Z,6.63
2023-05-03T20:33:21.329Z,6.62
2023-05-03T20:36:13.242Z,6.55
2023-05-03T20:39:02.898Z,6.44
2023-05-03T20:41:52.411Z,6.35
2023-05-03T20:44:42.324Z,6.29
2023-05-03T20:47:31.531Z,6.20
2023-05-03T20:50:22.165Z,6.14
2023-05-03T20:53:11.681Z,6.05
2023-05-03T20:56:07.712Z,5.93
2023-05-03T20:58:57.354Z,5.84
2023-05-03T21:01:47.120Z,5.80
2023-05-03T21:04:37.317Z,5.78
2023-05-03T21:07:29.623Z,5.77
2023-05-03T21:10:00.924Z,5.71
2023-05-03T21:12:51.027Z,5.62
2023-05-03T21:15:40.410Z,5.53
2023-05-03T21:18:32.674Z,5.45
2023-05-03T21:21:22.521Z,5.39
2023-05-03T21:24:11.810Z,5.34
2023-05-03T21:27:02.151Z,5.34
2023-05-03T21:29:51.866Z,5.34
2023-05-03T21:32:41.176Z,5.33
2023-05-03T21:35:39.021Z,5.27
2023-05-03T21:38:33.152Z,5.24
2023-05-03T21:41:27.491Z,5.20
2023-05-03T21:44:16.854Z,5.16
2023-05-03T21:47:06.569Z,5.09
2023-05-03T21:49:58.435Z,5.04
2023-05-03T21:52:47.918Z,5.00
2023-05-03T21:55:38.473Z,4.97
2023-05-03T21:58:30.168Z,4.90
2023-05-03T22:01:20.961Z,4.84
2023-05-03T22:04:11.117Z,4.80
2023-05-03T22:07:00.522Z,4.76
2023-05-03T22:09:48.750Z,4.74
2023-05-03T22:12:38.691Z,4.70
2023-05-03T22:15:30.951Z,4.65
2023-05-03T22:18:04.973Z,4.58
2023-05-03T22:21:03.279Z,4.51
2023-05-03T22:23:52.445Z,4.41
2023-05-03T22:26:41.509Z,4.33
2023-05-03T22:29:31.937Z,4.26
2023-05-03T22:32:59.166Z,4.19
2023-05-03T22:35:23.562Z,4.15
2023-05-03T22:38:18.344Z,4.09
2023-05-03T22:41:07.527Z,4.01
2023-05-03T22:43:57.789Z,3.96
2023-05-03T22:46:47.179Z,3.92
2023-05-03T22:49:36.747Z,3.89
2023-05-03T22:52:25.989Z,3.85
2023-05-03T22:55:18.699Z,3.83
2023-05-03T22:58:10.598Z,3.81
2023-05-03T23:01:08.436Z,3.80
2023-05-03T23:03:59.167Z,3.78
2023-05-03T23:06:48.769Z,3.80
2023-05-03T23:09:37.952Z,3.82
2023-05-03T23:12:29.922Z,3.92
2023-05-03T23:15:19.279Z,4.05
2023-05-03T23:18:13.849Z,4.09
2023-05-03T23:21:05.683Z,4.07
2023-05-03T23:23:57.070Z,4.00
2023-05-03T23:26:42.082Z,3.94
2023-05-03T23:29:23.007Z,3.88
2023-05-03T23:32:13.709Z,3.87
2023-05-03T23:35:09.483Z,3.91
2023-05-03T23:37:58.321Z,3.88
2023-05-03T23:40:48.390Z,3.79
2023-05-03T23:43:37.551Z,3.71
2023-05-03T23:46:26.568Z,3.76
2023-05-03T23:49:15.579Z,3.78
2023-05-03T23:52:06.734Z,3.73
2023-05-03T23:54:55.957Z,3.70
2023-05-03T23:57:45.508Z,3.65
